Terminal Aerodrome Forecast
Issued by NWS

Home | Current Version | Previous Version | Text Only | Print | Product List | Glossary On
Versions: 1 2 3 4 5 6 7 8 9 10 11 12 13 14 15 16 17 18
000
FTUS46 KSEW 280520
TAFHQM
TAF
KHQM 280520Z 2806/2906 25005KT 6SM BR BKN007
     FM280800 VRB03KT 3SM BR OVC006
     FM281700 24007KT P6SM BKN012
     FM282000 24012KT P6SM SCT015=

USA.gov is the U.S. government's official web portal to all federal, state and local government web resources and services.